createdAt,value
2017-10-27T00:00:53.440Z,0
2017-10-27T00:01:53.764Z,0
2017-10-27T00:02:53.768Z,0
2017-10-27T00:03:53.079Z,0
2017-10-27T00:04:53.733Z,0
2017-10-27T00:05:53.427Z,0
2017-10-27T00:06:53.074Z,0
2017-10-27T00:07:53.729Z,0
2017-10-27T00:08:53.693Z,0
2017-10-27T00:09:53.343Z,0
2017-10-27T00:10:54.031Z,0
2017-10-27T00:11:53.701Z,0
2017-10-27T00:12:52.985Z,0
2017-10-27T00:13:53.305Z,0
2017-10-27T00:14:53.299Z,0
2017-10-27T00:15:53.636Z,0
2017-10-27T00:16:53.278Z,0
2017-10-27T00:17:53.276Z,0
2017-10-27T00:18:53.602Z,0
2017-10-27T00:19:52.919Z,0
2017-10-27T00:20:52.893Z,0
2017-10-27T00:21:53.565Z,0
2017-10-27T00:22:53.215Z,0
2017-10-27T00:23:52.872Z,0
2017-10-27T00:24:52.857Z,0
2017-10-27T00:25:53.196Z,0
2017-10-27T00:26:53.512Z,0
2017-10-27T00:27:53.847Z,0
2017-10-27T00:28:53.856Z,0
2017-10-27T00:29:53.170Z,0
2017-10-27T00:30:53.478Z,0
2017-10-27T00:31:53.125Z,0
2017-10-27T00:32:53.117Z,0
2017-10-27T00:33:53.106Z,0
2017-10-27T00:34:53.105Z,0
2017-10-27T00:35:53.095Z,0
2017-10-27T00:36:53.112Z,0
2017-10-27T00:37:53.425Z,0
2017-10-27T00:38:53.058Z,0
2017-10-27T00:39:53.053Z,0
2017-10-27T00:40:52.698Z,0
2017-10-27T00:41:53.026Z,0
2017-10-27T00:42:53.023Z,0
2017-10-27T00:43:53.010Z,0
2017-10-27T00:44:53.344Z,0
2017-10-27T00:45:52.648Z,0
2017-10-27T00:46:52.981Z,0
2017-10-27T00:47:53.308Z,0
2017-10-27T00:48:52.981Z,0
2017-10-27T00:49:52.982Z,0
2017-10-27T00:50:53.299Z,0
2017-10-27T00:51:53.634Z,0
2017-10-27T00:52:53.264Z,0
2017-10-27T00:53:53.599Z,0
2017-10-27T00:54:53.241Z,0
2017-10-27T00:55:52.562Z,0
2017-10-27T00:56:53.236Z,0
2017-10-27T00:57:53.240Z,0
2017-10-27T00:58:53.235Z,0
2017-10-27T00:59:52.513Z,0
2017-10-27T01:00:53.205Z,0
2017-10-27T01:01:52.833Z,0
2017-10-27T01:02:52.822Z,0
2017-10-27T01:03:53.173Z,0
2017-10-27T01:04:53.154Z,0
2017-10-27T01:05:52.796Z,0
2017-10-27T01:06:53.489Z,0
2017-10-27T01:07:53.120Z,0
2017-10-27T01:08:52.767Z,0
2017-10-27T01:09:52.775Z,0
2017-10-27T01:10:53.087Z,0
2017-10-27T01:11:52.737Z,0
2017-10-27T01:12:52.739Z,0
2017-10-27T01:13:53.079Z,0
2017-10-27T01:14:52.718Z,0
2017-10-27T01:15:53.051Z,0
2017-10-27T01:16:52.687Z,0
2017-10-27T01:17:53.026Z,0
2017-10-27T01:18:52.669Z,0
2017-10-27T01:19:52.700Z,0
2017-10-27T01:20:53.330Z,0
2017-10-27T01:21:52.647Z,0
2017-10-27T01:22:52.640Z,0
2017-10-27T01:23:53.678Z,0
2017-10-27T01:24:52.828Z,0
2017-10-27T01:25:52.605Z,0
2017-10-27T01:26:52.592Z,0
2017-10-27T01:27:53.291Z,0
2017-10-27T01:28:52.592Z,0
2017-10-27T01:29:52.584Z,0
2017-10-27T01:30:52.571Z,0
2017-10-27T01:31:52.885Z,0
2017-10-27T01:32:52.192Z,0
2017-10-27T01:33:52.537Z,0
2017-10-27T01:34:52.515Z,0
2017-10-27T01:35:52.531Z,0
2017-10-27T01:36:52.495Z,0
2017-10-27T01:37:52.481Z,0
2017-10-27T01:38:52.832Z,0
2017-10-27T01:39:52.472Z,0
2017-10-27T01:40:53.146Z,0
2017-10-27T01:41:52.474Z,0
2017-10-27T01:42:52.796Z,0
2017-10-27T01:43:52.104Z,0
2017-10-27T01:44:52.078Z,0
2017-10-27T01:45:53.102Z,0
2017-10-27T01:46:53.101Z,0
2017-10-27T01:47:52.386Z,0
2017-10-27T01:48:52.383Z,0
2017-10-27T01:49:52.727Z,0
2017-10-27T01:50:53.044Z,0
2017-10-27T01:51:52.351Z,0
2017-10-27T01:52:52.698Z,0
2017-10-27T01:53:52.336Z,0
2017-10-27T01:54:52.333Z,0
2017-10-27T01:55:52.996Z,0
2017-10-27T01:56:52.646Z,0
2017-10-27T01:57:52.294Z,0
2017-10-27T01:58:52.622Z,0
2017-10-27T01:59:51.950Z,0
2017-10-27T02:00:51.926Z,0
2017-10-27T02:01:52.253Z,0
2017-10-27T02:02:52.259Z,0
2017-10-27T02:03:52.594Z,0
2017-10-27T02:04:52.223Z,0
2017-10-27T02:05:52.214Z,0
2017-10-27T02:06:52.890Z,0
2017-10-27T02:07:52.197Z,0
2017-10-27T02:08:51.878Z,0
2017-10-27T02:09:52.190Z,0
2017-10-27T02:10:51.829Z,0
2017-10-27T02:11:52.527Z,0
2017-10-27T02:12:52.191Z,0
2017-10-27T02:13:52.144Z,0
2017-10-27T02:14:52.133Z,0
2017-10-27T02:15:51.778Z,0
2017-10-27T02:16:51.770Z,0
2017-10-27T02:17:51.780Z,0
2017-10-27T02:18:52.085Z,0
2017-10-27T02:19:51.740Z,0
2017-10-27T02:20:52.105Z,0
2017-10-27T02:21:52.768Z,0
2017-10-27T02:22:52.069Z,0
2017-10-27T02:23:51.703Z,0
2017-10-27T02:24:52.384Z,0
2017-10-27T02:25:52.052Z,0
2017-10-27T02:26:52.702Z,0
2017-10-27T02:27:51.994Z,0
2017-10-27T02:28:52.334Z,0
2017-10-27T02:29:51.642Z,0
2017-10-27T02:30:51.960Z,0
2017-10-27T02:31:52.321Z,0
2017-10-27T02:32:51.968Z,0
2017-10-27T02:33:52.050Z,0
2017-10-27T02:34:52.266Z,0
2017-10-27T02:35:51.926Z,0
2017-10-27T02:36:52.254Z,0
2017-10-27T02:37:52.240Z,0
2017-10-27T02:38:52.249Z,0
2017-10-27T02:39:51.900Z,0
2017-10-27T02:40:51.878Z,0
2017-10-27T02:41:52.191Z,0
2017-10-27T02:42:52.190Z,0
2017-10-27T02:43:51.491Z,0
2017-10-27T02:44:51.811Z,0
2017-10-27T02:45:51.802Z,0
2017-10-27T02:46:52.161Z,0
2017-10-27T02:47:52.465Z,0
2017-10-27T02:48:52.798Z,0
2017-10-27T02:49:52.454Z,0
2017-10-27T02:50:52.774Z,0
2017-10-27T02:51:52.083Z,0
2017-10-27T02:52:51.390Z,0
2017-10-27T02:53:51.737Z,0
2017-10-27T02:54:51.703Z,0
2017-10-27T02:55:51.703Z,0
2017-10-27T02:56:51.681Z,0
2017-10-27T02:57:51.672Z,0
2017-10-27T02:58:52.002Z,0
2017-10-27T02:59:51.674Z,0
2017-10-27T03:00:51.643Z,0
2017-10-27T03:01:51.625Z,0
2017-10-27T03:02:52.296Z,0
2017-10-27T03:03:51.955Z,0
2017-10-27T03:04:51.959Z,0
2017-10-27T03:05:51.578Z,0
2017-10-27T03:06:51.232Z,0
2017-10-27T03:07:51.251Z,0
2017-10-27T03:08:51.888Z,0
2017-10-27T03:09:51.893Z,0
2017-10-27T03:10:51.528Z,0
2017-10-27T03:11:51.903Z,0
2017-10-27T03:12:51.846Z,0
2017-10-27T03:13:51.519Z,0
2017-10-27T03:14:51.478Z,0
2017-10-27T03:15:51.158Z,0
2017-10-27T03:16:51.482Z,0
2017-10-27T03:17:51.458Z,0
2017-10-27T03:18:52.144Z,0
2017-10-27T03:19:51.436Z,0
2017-10-27T03:20:51.426Z,0
2017-10-27T03:21:51.417Z,0
2017-10-27T03:22:51.394Z,0
2017-10-27T03:23:51.047Z,0
2017-10-27T03:24:51.377Z,0
2017-10-27T03:25:51.018Z,0
2017-10-27T03:26:51.004Z,0
2017-10-27T03:27:51.353Z,0
2017-10-27T03:28:51.694Z,0
2017-10-27T03:29:50.971Z,0
2017-10-27T03:30:51.653Z,0
2017-10-27T03:31:51.640Z,0
2017-10-27T03:32:51.276Z,0
2017-10-27T03:33:50.948Z,0
2017-10-27T03:34:51.254Z,0
2017-10-27T03:35:51.590Z,0
2017-10-27T03:36:51.913Z,0
2017-10-27T03:37:51.227Z,0
2017-10-27T03:38:51.247Z,0
2017-10-27T03:39:51.563Z,0
2017-10-27T03:40:51.529Z,0
2017-10-27T03:41:50.835Z,0
2017-10-27T03:42:51.506Z,0
2017-10-27T03:43:52.173Z,0
2017-10-27T03:44:51.504Z,0
2017-10-27T03:45:51.492Z,0
2017-10-27T03:46:51.816Z,0
2017-10-27T03:47:51.455Z,0
2017-10-27T03:48:51.441Z,0
2017-10-27T03:49:50.746Z,0
2017-10-27T03:50:51.081Z,0
2017-10-27T03:51:51.406Z,0
2017-10-27T03:52:51.074Z,0
2017-10-27T03:53:51.043Z,0
2017-10-27T03:54:51.033Z,0
2017-10-27T03:55:51.709Z,0
2017-10-27T03:56:51.019Z,0
2017-10-27T03:57:50.997Z,0
2017-10-27T03:58:50.988Z,0
2017-10-27T03:59:50.995Z,0
2017-10-27T04:00:50.968Z,0
2017-10-27T04:01:50.962Z,0
2017-10-27T04:02:50.602Z,0
2017-10-27T04:03:50.955Z,0
2017-10-27T04:04:50.930Z,0
2017-10-27T04:05:51.591Z,0
2017-10-27T04:06:50.904Z,0
2017-10-27T04:07:51.922Z,0
2017-10-27T04:08:51.216Z,0
2017-10-27T04:09:50.862Z,0
2017-10-27T04:10:50.531Z,0
2017-10-27T04:11:50.841Z,0
2017-10-27T04:12:51.524Z,0
2017-10-27T04:13:51.163Z,0
2017-10-27T04:14:50.466Z,0
2017-10-27T04:15:50.795Z,0
2017-10-27T04:16:51.122Z,0
2017-10-27T04:17:50.435Z,0
2017-10-27T04:18:50.423Z,0
2017-10-27T04:19:51.087Z,0
2017-10-27T04:20:51.437Z,0
2017-10-27T04:21:50.730Z,0
2017-10-27T04:22:51.054Z,0
2017-10-27T04:23:50.381Z,0
2017-10-27T04:24:50.698Z,0
2017-10-27T04:25:50.347Z,0
2017-10-27T04:26:50.707Z,0
2017-10-27T04:27:51.012Z,0
2017-10-27T04:28:50.650Z,0
2017-10-27T04:29:50.982Z,0
2017-10-27T04:30:50.969Z,0
2017-10-27T04:31:50.642Z,0
2017-10-27T04:32:50.969Z,0
2017-10-27T04:33:50.258Z,0
2017-10-27T04:34:50.457Z,0
2017-10-27T04:35:51.261Z,0
2017-10-27T04:36:50.560Z,0
2017-10-27T04:37:50.888Z,0
2017-10-27T04:38:50.198Z,0
2017-10-27T04:39:50.191Z,0
2017-10-27T04:40:50.863Z,0
2017-10-27T04:41:50.504Z,0
2017-10-27T04:42:50.151Z,0
2017-10-27T04:43:50.848Z,0
2017-10-27T04:44:51.518Z,0
2017-10-27T04:45:50.117Z,0
2017-10-27T04:46:50.448Z,0
2017-10-27T04:47:50.108Z,0
2017-10-27T04:48:50.803Z,0
2017-10-27T04:49:50.419Z,0
2017-10-27T04:50:50.762Z,0
2017-10-27T04:51:50.726Z,0
2017-10-27T04:52:50.376Z,0
2017-10-27T04:53:50.714Z,0
2017-10-27T04:54:50.692Z,0
2017-10-27T04:55:51.021Z,0
2017-10-27T04:56:50.696Z,0
2017-10-27T04:57:50.663Z,0
2017-10-27T04:58:49.980Z,0
2017-10-27T04:59:51.008Z,0
2017-10-27T05:00:50.698Z,0
2017-10-27T05:01:50.616Z,0
2017-10-27T05:02:49.922Z,0
2017-10-27T05:03:50.946Z,0
2017-10-27T05:04:50.589Z,0
2017-10-27T05:05:50.581Z,0
2017-10-27T05:06:50.236Z,0
2017-10-27T05:07:50.545Z,0
2017-10-27T05:08:50.553Z,0
2017-10-27T05:09:50.899Z,0
2017-10-27T05:10:50.177Z,0
2017-10-27T05:11:50.161Z,0
2017-10-27T05:12:50.147Z,0
2017-10-27T05:13:50.814Z,0
2017-10-27T05:14:50.131Z,0
2017-10-27T05:15:49.785Z,0
2017-10-27T05:16:49.759Z,0
2017-10-27T05:17:50.105Z,0
2017-10-27T05:18:50.412Z,0
2017-10-27T05:19:50.105Z,0
2017-10-27T05:20:50.055Z,0
2017-10-27T05:21:50.736Z,0
2017-10-27T05:22:50.369Z,0
2017-10-27T05:23:50.021Z,0
2017-10-27T05:24:50.005Z,0
2017-10-27T05:25:49.997Z,0
2017-10-27T05:26:50.334Z,0
2017-10-27T05:27:50.323Z,0
2017-10-27T05:28:49.619Z,0
2017-10-27T05:29:50.321Z,0
2017-10-27T05:30:50.280Z,0
2017-10-27T05:31:49.583Z,0
2017-10-27T05:32:49.926Z,0
2017-10-27T05:33:49.905Z,0
2017-10-27T05:34:49.548Z,0
2017-10-27T05:35:49.876Z,0
2017-10-27T05:36:49.866Z,0
2017-10-27T05:37:49.522Z,0
2017-10-27T05:38:49.505Z,0
2017-10-27T05:39:49.833Z,0
2017-10-27T05:40:49.824Z,0
2017-10-27T05:41:50.150Z,0
2017-10-27T05:42:49.806Z,0
2017-10-27T05:43:49.783Z,0
2017-10-27T05:44:50.119Z,0
2017-10-27T05:45:49.441Z,0
2017-10-27T05:46:49.431Z,0
2017-10-27T05:47:49.763Z,0
2017-10-27T05:48:50.088Z,0
2017-10-27T05:49:50.062Z,0
2017-10-27T05:50:50.044Z,0
2017-10-27T05:51:50.032Z,0
2017-10-27T05:52:49.337Z,0
2017-10-27T05:53:49.664Z,0
2017-10-27T05:54:49.670Z,0
2017-10-27T05:55:49.993Z,0
2017-10-27T05:56:49.652Z,0
2017-10-27T05:57:50.306Z,0
2017-10-27T05:58:49.955Z,0
2017-10-27T05:59:49.959Z,0
2017-10-27T06:00:49.937Z,0
2017-10-27T06:01:49.570Z,0
2017-10-27T06:02:49.904Z,0
2017-10-27T06:03:49.589Z,0
2017-10-27T06:04:49.538Z,0
2017-10-27T06:05:50.574Z,0
2017-10-27T06:06:49.513Z,0
2017-10-27T06:07:49.179Z,0
2017-10-27T06:08:49.151Z,0
2017-10-27T06:09:49.818Z,0
2017-10-27T06:10:49.127Z,0
2017-10-27T06:11:49.792Z,0
2017-10-27T06:12:49.103Z,0
2017-10-27T06:13:50.127Z,0
2017-10-27T06:14:49.777Z,0
2017-10-27T06:15:49.423Z,0
2017-10-27T06:16:49.401Z,0
2017-10-27T06:17:49.404Z,5
2017-10-27T06:18:49.036Z,5
2017-10-27T06:19:49.027Z,5
2017-10-27T06:20:49.353Z,5
2017-10-27T06:21:50.025Z,5
2017-10-27T06:22:48.987Z,5
2017-10-27T06:23:49.860Z,5
2017-10-27T06:24:49.305Z,10
2017-10-27T06:25:49.645Z,5
2017-10-27T06:26:49.302Z,5
2017-10-27T06:27:49.607Z,10
2017-10-27T06:28:48.937Z,5
2017-10-27T06:29:48.914Z,5
2017-10-27T06:30:48.919Z,5
2017-10-27T06:31:49.235Z,10
2017-10-27T06:32:49.557Z,10
2017-10-27T06:33:49.546Z,10
2017-10-27T06:34:49.405Z,10
2017-10-27T06:35:50.207Z,15
2017-10-27T06:36:49.508Z,15
2017-10-27T06:37:48.817Z,25
2017-10-27T06:38:49.509Z,35
2017-10-27T06:39:49.135Z,40
2017-10-27T06:40:49.473Z,30
2017-10-27T06:41:48.770Z,30
2017-10-27T06:42:49.098Z,40
2017-10-27T06:43:49.777Z,30
2017-10-27T06:44:49.086Z,25
2017-10-27T06:45:49.083Z,25
2017-10-27T06:46:49.059Z,30
2017-10-27T06:47:48.702Z,40
2017-10-27T06:48:49.708Z,35
2017-10-27T06:49:49.364Z,40
2017-10-27T06:50:49.350Z,40
2017-10-27T06:51:48.997Z,35
2017-10-27T06:52:48.982Z,25
2017-10-27T06:53:49.325Z,25
2017-10-27T06:54:49.308Z,15
2017-10-27T06:55:49.310Z,25
2017-10-27T06:56:48.956Z,30
2017-10-27T06:57:49.282Z,40
2017-10-27T06:58:49.596Z,40
2017-10-27T06:59:49.244Z,40
2017-10-27T07:00:49.230Z,35
2017-10-27T07:01:49.563Z,30
2017-10-27T07:02:48.879Z,40
2017-10-27T07:03:49.221Z,40
2017-10-27T07:04:49.190Z,40
2017-10-27T07:05:49.223Z,40
2017-10-27T07:06:48.922Z,40
2017-10-27T07:07:49.166Z,45
2017-10-27T07:08:48.824Z,45
2017-10-27T07:09:48.524Z,35
2017-10-27T07:10:48.790Z,40
2017-10-27T07:11:49.091Z,40
2017-10-27T07:12:48.410Z,40
2017-10-27T07:13:49.095Z,35
2017-10-27T07:14:48.727Z,30
2017-10-27T07:15:49.069Z,35
2017-10-27T07:16:49.059Z,30
2017-10-27T07:17:48.694Z,35
2017-10-27T07:18:49.046Z,30
2017-10-27T07:19:48.329Z,30
2017-10-27T07:20:48.670Z,30
2017-10-27T07:21:48.696Z,35
2017-10-27T07:22:48.993Z,25
2017-10-27T07:23:48.291Z,40
2017-10-27T07:24:48.973Z,35
2017-10-27T07:25:49.280Z,35
2017-10-27T07:26:48.590Z,35
2017-10-27T07:27:48.578Z,50
2017-10-27T07:28:49.245Z,55
2017-10-27T07:29:48.554Z,70
2017-10-27T07:30:48.881Z,80
2017-10-27T07:31:48.899Z,70
2017-10-27T07:32:48.180Z,65
2017-10-27T07:33:49.203Z,50
2017-10-27T07:34:48.499Z,65
2017-10-27T07:35:48.872Z,75
2017-10-27T07:36:48.829Z,75
2017-10-27T07:37:48.800Z,75
2017-10-27T07:38:48.141Z,70
2017-10-27T07:39:48.448Z,60
2017-10-27T07:40:48.800Z,65
2017-10-27T07:41:48.077Z,65
2017-10-27T07:42:48.861Z,85
2017-10-27T07:43:48.732Z,75
2017-10-27T07:44:48.901Z,75
2017-10-27T07:45:48.766Z,65
2017-10-27T07:46:48.699Z,50
2017-10-27T07:47:48.390Z,55
2017-10-27T07:48:48.767Z,45
2017-10-27T07:49:49.012Z,30
2017-10-27T07:50:47.972Z,25
2017-10-27T07:51:48.299Z,35
2017-10-27T07:52:47.977Z,40
2017-10-27T07:53:48.636Z,35
2017-10-27T07:54:48.987Z,30
2017-10-27T07:55:47.929Z,35
2017-10-27T07:56:48.299Z,40
2017-10-27T07:57:48.568Z,40
2017-10-27T07:58:48.219Z,40
2017-10-27T07:59:48.916Z,45
2017-10-27T08:00:49.223Z,45
2017-10-27T08:01:48.703Z,80
2017-10-27T08:02:47.831Z,65
2017-10-27T08:03:48.512Z,55
2017-10-27T08:04:48.510Z,55
2017-10-27T08:05:48.481Z,75
2017-10-27T08:06:48.123Z,75
2017-10-27T08:07:48.113Z,80
2017-10-27T08:08:48.108Z,95
2017-10-27T08:09:48.458Z,115
2017-10-27T08:10:48.419Z,105
2017-10-27T08:11:48.445Z,70
2017-10-27T08:12:48.396Z,95
2017-10-27T08:13:47.719Z,115
2017-10-27T08:14:48.037Z,95
2017-10-27T08:15:48.704Z,150
2017-10-27T08:16:48.373Z,120
2017-10-27T08:17:48.030Z,125
2017-10-27T08:18:48.668Z,135
2017-10-27T08:19:49.012Z,95
2017-10-27T08:20:47.630Z,80
2017-10-27T08:21:47.950Z,85
2017-10-27T08:22:47.952Z,120
2017-10-27T08:23:48.623Z,115
2017-10-27T08:24:47.918Z,115
2017-10-27T08:25:47.915Z,165
2017-10-27T08:26:48.240Z,150
2017-10-27T08:27:47.887Z,170
2017-10-27T08:28:48.252Z,170
2017-10-27T08:29:47.526Z,200
2017-10-27T08:30:48.216Z,170
2017-10-27T08:31:47.837Z,135
2017-10-27T08:32:47.832Z,180
2017-10-27T08:33:47.821Z,175
2017-10-27T08:34:48.157Z,175
2017-10-27T08:35:47.798Z,185
2017-10-27T08:36:48.461Z,120
2017-10-27T08:37:48.473Z,110
2017-10-27T08:38:48.098Z,130
2017-10-27T08:39:47.753Z,135
2017-10-27T08:40:48.083Z,90
2017-10-27T08:41:48.078Z,80
2017-10-27T08:42:48.061Z,110
2017-10-27T08:43:47.707Z,135
2017-10-27T08:44:47.348Z,140
2017-10-27T08:45:48.354Z,130
2017-10-27T08:46:47.348Z,130
2017-10-27T08:47:47.653Z,120
2017-10-27T08:48:47.992Z,140
2017-10-27T08:49:47.973Z,160
2017-10-27T08:50:47.978Z,160
2017-10-27T08:51:47.960Z,155
2017-10-27T08:52:47.935Z,140
2017-10-27T08:53:47.938Z,130
2017-10-27T08:54:47.573Z,155
2017-10-27T08:55:47.253Z,190
2017-10-27T08:56:47.555Z,160
2017-10-27T08:57:47.877Z,265
2017-10-27T08:58:48.207Z,280
2017-10-27T08:59:47.533Z,305
2017-10-27T09:00:47.507Z,305
2017-10-27T09:01:47.537Z,275
2017-10-27T09:02:47.148Z,205
2017-10-27T09:03:47.494Z,195
2017-10-27T09:04:47.478Z,155
2017-10-27T09:05:48.140Z,165
2017-10-27T09:06:47.441Z,225
2017-10-27T09:07:47.425Z,215
2017-10-27T09:08:47.768Z,125
2017-10-27T09:09:47.409Z,130
2017-10-27T09:10:47.774Z,145
2017-10-27T09:11:48.059Z,165
2017-10-27T09:12:48.053Z,150
2017-10-27T09:13:47.719Z,190
2017-10-27T09:14:47.693Z,195
2017-10-27T09:15:46.994Z,205
2017-10-27T09:16:47.324Z,165
2017-10-27T09:17:47.320Z,145
2017-10-27T09:18:46.962Z,110
2017-10-27T09:19:47.305Z,95
2017-10-27T09:20:47.623Z,125
2017-10-27T09:21:47.273Z,120
2017-10-27T09:22:47.268Z,160
2017-10-27T09:23:47.604Z,150
2017-10-27T09:24:47.237Z,165
2017-10-27T09:25:47.223Z,155
2017-10-27T09:26:47.215Z,180
2017-10-27T09:27:46.889Z,110
2017-10-27T09:28:47.886Z,140
2017-10-27T09:29:46.858Z,180
2017-10-27T09:30:47.512Z,210
2017-10-27T09:31:47.176Z,190
2017-10-27T09:32:47.856Z,160
2017-10-27T09:33:47.509Z,135
2017-10-27T09:34:47.461Z,105
2017-10-27T09:35:47.458Z,100
2017-10-27T09:36:46.772Z,65
2017-10-27T09:37:47.088Z,65
2017-10-27T09:38:47.437Z,85
2017-10-27T09:39:47.404Z,90
2017-10-27T09:40:47.754Z,90
2017-10-27T09:41:46.702Z,90
2017-10-27T09:42:47.398Z,90
2017-10-27T09:43:47.355Z,105
2017-10-27T09:44:47.682Z,145
2017-10-27T09:45:47.342Z,240
2017-10-27T09:46:46.983Z,215
2017-10-27T09:47:47.326Z,180
2017-10-27T09:48:46.979Z,150
2017-10-27T09:49:47.348Z,120
2017-10-27T09:50:46.609Z,105
2017-10-27T09:51:46.596Z,95
2017-10-27T09:52:46.589Z,80
2017-10-27T09:53:46.896Z,70
2017-10-27T09:54:46.883Z,65
2017-10-27T09:55:46.870Z,70
2017-10-27T09:56:46.858Z,75
2017-10-27T09:57:47.223Z,95
2017-10-27T09:58:46.839Z,100
2017-10-27T09:59:47.506Z,85
2017-10-27T10:00:47.493Z,90
2017-10-27T10:01:47.159Z,90
2017-10-27T10:02:46.793Z,130
2017-10-27T10:03:47.120Z,220
2017-10-27T10:04:47.124Z,355
2017-10-27T10:05:46.419Z,280
2017-10-27T10:06:46.742Z,255
2017-10-27T10:07:47.427Z,240
2017-10-27T10:08:46.720Z,240
2017-10-27T10:09:46.712Z,210
2017-10-27T10:10:47.049Z,260
2017-10-27T10:11:46.348Z,260
2017-10-27T10:12:47.028Z,245
2017-10-27T10:13:46.705Z,250
2017-10-27T10:14:46.991Z,270
2017-10-27T10:15:47.010Z,260
2017-10-27T10:16:46.290Z,265
2017-10-27T10:17:46.276Z,270
2017-10-27T10:18:46.672Z,295
2017-10-27T10:19:46.594Z,285
2017-10-27T10:20:46.246Z,255
2017-10-27T10:21:46.614Z,250
2017-10-27T10:22:46.569Z,255
2017-10-27T10:23:46.905Z,195
2017-10-27T10:24:46.548Z,140
2017-10-27T10:25:46.543Z,140
2017-10-27T10:26:47.213Z,180
2017-10-27T10:27:46.199Z,210
2017-10-27T10:28:46.513Z,205
2017-10-27T10:29:46.502Z,225
2017-10-27T10:30:46.489Z,220
2017-10-27T10:31:46.861Z,240
2017-10-27T10:32:46.475Z,245
2017-10-27T10:33:46.892Z,270
2017-10-27T10:34:46.445Z,255
2017-10-27T10:35:46.793Z,235
2017-10-27T10:36:46.083Z,230
2017-10-27T10:37:46.755Z,235
2017-10-27T10:38:46.755Z,200
2017-10-27T10:39:46.773Z,125
2017-10-27T10:40:46.725Z,140
2017-10-27T10:41:47.081Z,170
2017-10-27T10:42:46.411Z,155
2017-10-27T10:43:46.351Z,170
2017-10-27T10:44:46.353Z,225
2017-10-27T10:45:46.326Z,255
2017-10-27T10:46:46.661Z,290
2017-10-27T10:47:47.012Z,295
2017-10-27T10:48:46.680Z,245
2017-10-27T10:49:47.050Z,275
2017-10-27T10:50:46.634Z,345
2017-10-27T10:51:46.605Z,370
2017-10-27T10:52:46.613Z,225
2017-10-27T10:53:46.259Z,155
2017-10-27T10:54:46.582Z,175
2017-10-27T10:55:46.577Z,135
2017-10-27T10:56:46.242Z,125
2017-10-27T10:57:45.858Z,140
2017-10-27T10:58:45.885Z,125
2017-10-27T10:59:45.841Z,105
2017-10-27T11:00:46.517Z,115
2017-10-27T11:01:45.834Z,90
2017-10-27T11:02:46.490Z,90
2017-10-27T11:03:45.799Z,135
2017-10-27T11:04:46.129Z,130
2017-10-27T11:05:45.780Z,215
2017-10-27T11:06:46.466Z,225
2017-10-27T11:07:46.438Z,220
2017-10-27T11:08:46.106Z,200
2017-10-27T11:09:45.736Z,220
2017-10-27T11:10:46.425Z,255
2017-10-27T11:11:46.397Z,255
2017-10-27T11:12:46.388Z,235
2017-10-27T11:13:46.039Z,205
2017-10-27T11:14:46.030Z,220
2017-10-27T11:15:45.674Z,215
2017-10-27T11:16:45.660Z,220
2017-10-27T11:17:45.996Z,215
2017-10-27T11:18:46.031Z,175
2017-10-27T11:19:46.329Z,145
2017-10-27T11:20:45.616Z,140
2017-10-27T11:21:45.956Z,145
2017-10-27T11:22:45.955Z,160
2017-10-27T11:23:46.289Z,140
2017-10-27T11:24:45.601Z,90
2017-10-27T11:25:45.922Z,145
2017-10-27T11:26:46.586Z,145
2017-10-27T11:27:45.885Z,125
2017-10-27T11:28:46.218Z,165
2017-10-27T11:29:45.864Z,215
2017-10-27T11:30:46.247Z,245
2017-10-27T11:31:46.206Z,190
2017-10-27T11:32:45.830Z,190
2017-10-27T11:33:45.503Z,305
2017-10-27T11:34:46.150Z,235
2017-10-27T11:35:46.489Z,245
2017-10-27T11:36:45.791Z,240
2017-10-27T11:37:45.451Z,140
2017-10-27T11:38:45.772Z,130
2017-10-27T11:39:45.420Z,135
2017-10-27T11:40:45.748Z,150
2017-10-27T11:41:45.418Z,175
2017-10-27T11:42:46.091Z,180
2017-10-27T11:43:46.399Z,150
2017-10-27T11:44:45.718Z,155
2017-10-27T11:45:46.047Z,190
2017-10-27T11:46:46.023Z,210
2017-10-27T11:47:46.043Z,265
2017-10-27T11:48:45.663Z,260
2017-10-27T11:49:46.000Z,245
2017-10-27T11:50:45.984Z,225
2017-10-27T11:51:45.649Z,250
2017-10-27T11:52:46.308Z,205
2017-10-27T11:53:45.959Z,160
2017-10-27T11:54:46.282Z,165
2017-10-27T11:55:46.221Z,170
2017-10-27T11:56:45.589Z,180
2017-10-27T11:57:45.587Z,160
2017-10-27T11:58:46.250Z,190
2017-10-27T11:59:45.913Z,225
2017-10-27T12:00:45.228Z,230
2017-10-27T12:01:45.545Z,225
2017-10-27T12:02:45.858Z,195
2017-10-27T12:03:45.527Z,155
2017-10-27T12:04:46.215Z,160
2017-10-27T12:05:45.824Z,145
2017-10-27T12:06:45.484Z,130
2017-10-27T12:07:45.497Z,140
2017-10-27T12:08:45.450Z,150
2017-10-27T12:09:45.441Z,170
2017-10-27T12:10:45.430Z,190
2017-10-27T12:11:45.422Z,180
2017-10-27T12:12:45.423Z,145
2017-10-27T12:13:45.068Z,175
2017-10-27T12:14:45.389Z,250
2017-10-27T12:15:45.750Z,285
2017-10-27T12:16:45.737Z,265
2017-10-27T12:17:45.015Z,260
2017-10-27T12:18:45.020Z,245
2017-10-27T12:19:46.047Z,215
2017-10-27T12:20:46.012Z,200
2017-10-27T12:21:44.973Z,180
2017-10-27T12:22:45.302Z,210
2017-10-27T12:23:44.963Z,235
2017-10-27T12:24:44.962Z,145
2017-10-27T12:25:45.634Z,70
2017-10-27T12:26:46.310Z,70
2017-10-27T12:27:45.960Z,85
2017-10-27T12:28:45.579Z,70
2017-10-27T12:29:44.885Z,45
2017-10-27T12:30:45.570Z,35
2017-10-27T12:31:44.864Z,30
2017-10-27T12:32:45.192Z,45
2017-10-27T12:33:45.181Z,75
2017-10-27T12:34:45.528Z,120
2017-10-27T12:35:45.165Z,200
2017-10-27T12:36:45.151Z,235
2017-10-27T12:37:44.800Z,235
2017-10-27T12:38:44.794Z,260
2017-10-27T12:39:45.472Z,250
2017-10-27T12:40:45.470Z,235
2017-10-27T12:41:45.103Z,210
2017-10-27T12:42:45.092Z,210
2017-10-27T12:43:45.075Z,200
2017-10-27T12:44:45.061Z,150
2017-10-27T12:45:45.395Z,120
2017-10-27T12:46:44.699Z,120
2017-10-27T12:47:45.053Z,130
2017-10-27T12:48:44.699Z,140
2017-10-27T12:49:44.669Z,190
2017-10-27T12:50:45.016Z,175
2017-10-27T12:51:45.362Z,150
2017-10-27T12:52:45.746Z,160
2017-10-27T12:53:44.979Z,140
2017-10-27T12:54:45.630Z,150
2017-10-27T12:55:45.622Z,145
2017-10-27T12:56:44.934Z,170
2017-10-27T12:57:44.581Z,175
2017-10-27T12:58:44.573Z,145
2017-10-27T12:59:45.586Z,125
2017-10-27T13:00:45.231Z,135
2017-10-27T13:01:44.881Z,130
2017-10-27T13:02:45.199Z,105
2017-10-27T13:03:44.858Z,85
2017-10-27T13:04:44.843Z,70
2017-10-27T13:05:44.488Z,55
2017-10-27T13:06:44.500Z,55
2017-10-27T13:07:45.169Z,50
2017-10-27T13:08:44.813Z,30
2017-10-27T13:09:45.127Z,25
2017-10-27T13:10:44.775Z,25
2017-10-27T13:11:44.768Z,25
2017-10-27T13:12:44.774Z,40
2017-10-27T13:13:45.440Z,45
2017-10-27T13:14:45.103Z,55
2017-10-27T13:15:45.059Z,55
2017-10-27T13:16:44.705Z,65
2017-10-27T13:17:45.049Z,95
2017-10-27T13:18:44.685Z,135
2017-10-27T13:19:44.341Z,140
2017-10-27T13:20:44.660Z,150
2017-10-27T13:21:44.669Z,120
2017-10-27T13:22:44.636Z,100
2017-10-27T13:23:44.645Z,100
2017-10-27T13:24:44.994Z,95
2017-10-27T13:25:44.607Z,145
2017-10-27T13:26:44.588Z,160
2017-10-27T13:27:45.265Z,125
2017-10-27T13:28:45.268Z,130
2017-10-27T13:29:44.894Z,135
2017-10-27T13:30:45.225Z,140
2017-10-27T13:31:44.192Z,155
2017-10-27T13:32:44.180Z,175
2017-10-27T13:33:44.170Z,180
2017-10-27T13:34:44.156Z,160
2017-10-27T13:35:44.485Z,160
2017-10-27T13:36:44.142Z,125
2017-10-27T13:37:44.482Z,105
2017-10-27T13:38:44.818Z,100
2017-10-27T13:39:44.479Z,95
2017-10-27T13:40:44.430Z,100
2017-10-27T13:41:44.764Z,120
2017-10-27T13:42:44.062Z,120
2017-10-27T13:43:44.757Z,110
2017-10-27T13:44:44.739Z,100
2017-10-27T13:45:44.056Z,80
2017-10-27T13:46:44.707Z,65
2017-10-27T13:47:44.353Z,50
2017-10-27T13:48:44.015Z,50
2017-10-27T13:49:43.983Z,40
2017-10-27T13:50:44.314Z,55
2017-10-27T13:51:44.648Z,70
2017-10-27T13:52:44.677Z,75
2017-10-27T13:53:44.314Z,70
2017-10-27T13:54:44.267Z,70
2017-10-27T13:55:45.142Z,100
2017-10-27T13:56:44.274Z,115
2017-10-27T13:57:44.248Z,115
2017-10-27T13:58:44.241Z,115
2017-10-27T13:59:44.211Z,110
2017-10-27T14:00:44.200Z,95
2017-10-27T14:01:44.187Z,85
2017-10-27T14:02:44.515Z,95
2017-10-27T14:03:44.511Z,105
2017-10-27T14:04:44.500Z,90
2017-10-27T14:05:44.153Z,80
2017-10-27T14:06:44.147Z,85
2017-10-27T14:07:44.117Z,85
2017-10-27T14:08:44.115Z,85
2017-10-27T14:09:43.761Z,105
2017-10-27T14:10:44.426Z,125
2017-10-27T14:11:43.750Z,130
2017-10-27T14:12:44.429Z,125
2017-10-27T14:13:44.387Z,125
2017-10-27T14:14:44.066Z,125
2017-10-27T14:15:44.023Z,125
2017-10-27T14:16:44.720Z,115
2017-10-27T14:17:44.008Z,85
2017-10-27T14:18:43.987Z,85